Terminal Aerodrome Forecast
Issued by NWS Sioux Falls, SD

Home | Current Version | Previous Version | Text Only | Print | Product List | Glossary Off
Versions: 1 2 3 4 5 6 7 8 9 10 11 12

000
FTUS43 KFSD 201720
TAFSUX
TAF
KSUX 201720Z 2018/2118 31013KT P6SM BKN025
     FM202200 32013KT P6SM BKN035
     FM210100 34009KT P6SM SCT060
     FM210300 01006KT P6SM FEW130
     FM210700 VRB03KT P6SM FEW250
     FM211400 06007KT P6SM SCT250=

USA.gov is the U.S. government's official web portal to all federal, state and local government web resources and services.